Thunder radar more information blitzortung!


Radar de pluja more information rain snow radar


Visita la nostra xarxa de llocs de meteo:

Template documentation
and downloads

And another site



No particular awareness of the weather is required.    There are no Weather-warnings

Pagina Historial Weather Underground text

Diari Resum Novembre 10, 2017 Unitats:  Mètric    Imperial   Tant
« Previous Dia
SegĂźent Dia »
Diari Setmana Mensual Anual Personalitzada
  Maxima: Minima: Media:
Temperatura: -17.8 °C -15.7 °C -12 °C
Punt de rosada: -17.8 °C -18.7 °C -16.9 °C
Humitat: Humidity % 47 % 54 %
Wind Speed: 0 km/h 0 km/h 5.5 km/h
RĂ fegues de vent: 0 km/h - -
Vent:- - SSE
Pression baro: 0 hPa 34669.3 hPa -
Precipitacions: 0 mm    
Historical Graphs
 
 
Dades de taula per Novembre 10, 2017
Temps Temperatura Punt de rosada Pression baro Vent Wind Speed RĂ fegues de vent Humitat Rainfall Rate (Hourly)
-17.8 °C -17.8 °C 0 hPa Calm     Humidity % 0 mm
00:04 -14.9 °C -17.9 °C 34740.4 hPa Calm     68 % 0 mm
00:05 -15.4 °C -18.4 °C 34740.4 hPa NNE 2.6 km/h 5.1 km/h 68 % 0 mm
00:15 -15.4 °C -18.4 °C 34740.4 hPa NNE 5.1 km/h 7.7 km/h 68 % 0 mm
00:25 -15.4 °C -18.4 °C 34703.1 hPa NNE 2.6 km/h 5.1 km/h 68 % 0 mm
00:35 -15.5 °C -18.6 °C 34703.1 hPa NW 2.6 km/h 2.6 km/h 67 % 0 mm
00:45 -15.5 °C -18.5 °C 34740.4 hPa WNW 2.6 km/h 2.6 km/h 68 % 0 mm
00:55 -15.6 °C -18.6 °C 34740.4 hPa NNW 2.6 km/h 5.1 km/h 68 % 0 mm
01:05 -15.5 °C -18.5 °C 34740.4 hPa NNW 2.6 km/h 10.3 km/h 68 % 0 mm
01:15 -15.5 °C -18.5 °C 34703.1 hPa North 5.1 km/h 7.7 km/h 68 % 0 mm
01:25 -15.6 °C -18.6 °C 34740.4 hPa North 2.6 km/h 7.7 km/h 68 % 0 mm
01:35 -15.7 °C -18.7 °C 34740.4 hPa North 2.6 km/h 2.6 km/h 68 % 0 mm
01:45 -15.7 °C -18.7 °C 34703.1 hPa NNE 5.1 km/h 7.7 km/h 68 % 0 mm
01:55 -15.5 °C -18.5 °C 34740.4 hPa NE 5.1 km/h 7.7 km/h 68 % 0 mm
02:05 -15.3 °C -18.3 °C 34740.4 hPa NNE 2.6 km/h 10.3 km/h 68 % 0 mm
02:15 -15.2 °C -18.2 °C 34740.4 hPa North 2.6 km/h 5.1 km/h 68 % 0 mm
02:25 -15 °C -18.1 °C 34740.4 hPa NNE 7.7 km/h 12.9 km/h 67 % 0 mm
02:35 -14.7 °C -17.8 °C 34740.4 hPa Calm   5.1 km/h 67 % 0 mm
02:45 -14.4 °C -17.6 °C 34740.4 hPa NE 2.6 km/h 5.1 km/h 67 % 0 mm
02:55 -14.3 °C -17.6 °C 34740.4 hPa NE 2.6 km/h 5.1 km/h 66 % 0 mm
03:05 -14.1 °C -17.4 °C 34740.4 hPa NNE 5.1 km/h 7.7 km/h 65 % 0 mm
03:15 -14.2 °C -17.7 °C 34774.2 hPa NNE 7.7 km/h 15.6 km/h 64 % 0 mm
03:25 -14.1 °C -17.6 °C 34740.4 hPa NNE 2.6 km/h 12.9 km/h 64 % 0 mm
03:35 -13.8 °C -17.4 °C 34740.4 hPa NNE 5.1 km/h 15.6 km/h 64 % 0 mm
03:45 -13.8 °C -17.4 °C 34740.4 hPa NE 7.7 km/h 7.7 km/h 63 % 0 mm
03:55 -13.4 °C -17.1 °C 34774.2 hPa NE 5.1 km/h 10.3 km/h 63 % 0 mm
04:10 -13.3 °C -17.1 °C 34774.2 hPa NE 7.7 km/h 18.2 km/h 62 % 0 mm
04:20 -13.2 °C -17 °C 34774.2 hPa NNE 7.7 km/h 7.7 km/h 62 % 0 mm
04:30 -12.9 °C -16.9 °C 34774.2 hPa NNE 5.1 km/h 7.7 km/h 61 % 0 mm
10:38 -12.8 °C -16.8 °C 34774.2 hPa NNW 9 km/h 9 km/h 61 % 0 mm
10:43 -12.7 °C -16.7 °C 34774.2 hPa NE 9 km/h 9 km/h 61 % 0 mm
10:48 -12.8 °C -16.9 °C 34774.2 hPa ENE 11.9 km/h 11.9 km/h 60 % 0 mm
10:53 -12.6 °C -16.7 °C 34774.2 hPa West 6 km/h 6 km/h 60 % 0 mm
10:58 -12.5 °C -16.6 °C 34774.2 hPa NE 6 km/h 6 km/h 60 % 0 mm
11:03 -12.3 °C -16.4 °C 34774.2 hPa NNE 9.8 km/h 9.8 km/h 60 % 0 mm
11:08 -12.4 °C -16.7 °C 34774.2 hPa NNE 6 km/h 6 km/h 59 % 0 mm
11:13 -12.4 °C -16.7 °C 34774.2 hPa NE 9 km/h 9 km/h 59 % 0 mm
11:18 -12.3 °C -16.7 °C 34774.2 hPa ENE 6.8 km/h 6.8 km/h 58 % 0 mm
11:23 -12.3 °C -16.7 °C 34774.2 hPa ESE 6 km/h 6 km/h 58 % 0 mm
11:28 -12.2 °C -16.6 °C 34774.2 hPa NNE 6.3 km/h 6.3 km/h 58 % 0 mm
11:33 -11.9 °C -16.3 °C 34774.2 hPa NNE 3.7 km/h 3.7 km/h 58 % 0 mm
11:38 -11.8 °C -16.2 °C 34774.2 hPa NNE 6 km/h 6 km/h 58 % 0 mm
11:43 -11.8 °C -16.4 °C 34774.2 hPa NNE 6 km/h 6 km/h 57 % 0 mm
11:48 -11.8 °C -16.3 °C 34774.2 hPa ESE 9 km/h 9 km/h 57 % 0 mm
11:53 -11.6 °C -16.1 °C 34774.2 hPa East 7.6 km/h 7.6 km/h 57 % 0 mm
11:58 -11.5 °C -16.1 °C 34774.2 hPa NE 9 km/h 9 km/h 57 % 0 mm
12:03 -11.4 °C -16 °C 34774.2 hPa NNE 6.8 km/h 6.8 km/h 57 % 0 mm
12:08 -11.3 °C -15.9 °C 34740.4 hPa NNE 6 km/h 6 km/h 57 % 0 mm
12:13 -11.3 °C -16 °C 34740.4 hPa NE 6 km/h 6 km/h 56 % 0 mm
12:14 -11.3 °C -16 °C 34740.4 hPa NE 6 km/h 6 km/h 56 % 0 mm
12:19 -11.2 °C -15.9 °C 34740.4 hPa SSE 6 km/h 6 km/h 56 % 0 mm
12:24 -11.1 °C -15.8 °C 34740.4 hPa West 3.1 km/h 3.1 km/h 56 % 0 mm
12:29 -10.9 °C -15.7 °C 34740.4 hPa NE 6 km/h 6 km/h 56 % 0 mm
12:34 -10.8 °C -15.5 °C 34740.4 hPa NNE 6 km/h 6 km/h 56 % 0 mm
12:39 -10.7 °C -15.4 °C 34740.4 hPa ENE 6.3 km/h 6.3 km/h 56 % 0 mm
12:44 -10.8 °C -15.8 °C 34740.4 hPa ESE 11.9 km/h 11.9 km/h 54 % 0 mm
12:49 -10.7 °C -15.6 °C 34740.4 hPa ENE 6 km/h 6 km/h 55 % 0 mm
12:54 -10.6 °C -15.5 °C 34740.4 hPa East 6 km/h 6 km/h 55 % 0 mm
12:59 -10.6 °C -15.4 °C 34740.4 hPa ENE 9 km/h 9 km/h 55 % 0 mm
13:04 -10.4 °C -15.4 °C 34740.4 hPa ENE 9 km/h 9 km/h 55 % 0 mm
13:09 -10.4 °C -15.5 °C 34740.4 hPa ENE 11.9 km/h 11.9 km/h 54 % 0 mm
13:14 -10.4 °C -15.4 °C 34740.4 hPa NE 11.9 km/h 11.9 km/h 54 % 0 mm
13:19 -10.3 °C -15.4 °C 34740.4 hPa East 9 km/h 9 km/h 54 % 0 mm
13:24 -10.2 °C -15.4 °C 34740.4 hPa SE 9 km/h 9 km/h 53 % 0 mm
13:29 -10.1 °C -15.3 °C 34740.4 hPa ENE 8 km/h 8 km/h 53 % 0 mm
13:34 -10 °C -15.2 °C 34740.4 hPa ESE 6 km/h 6.3 km/h 53 % 0 mm
13:39 -9.9 °C -15.2 °C 34703.1 hPa NNE 9 km/h 9 km/h 53 % 0 mm
13:44 -9.9 °C -15.2 °C 34703.1 hPa NE 6 km/h 6 km/h 53 % 0 mm
13:49 -9.8 °C -15.1 °C 34703.1 hPa NE 11.9 km/h 11.9 km/h 53 % 0 mm
13:54 -9.8 °C -15.1 °C 34669.3 hPa ENE 11.9 km/h 11.9 km/h 53 % 0 mm
13:59 -9.8 °C -15.2 °C 34669.3 hPa NNE 6 km/h 6 km/h 52 % 0 mm
14:04 -9.7 °C -15.1 °C 34669.3 hPa North 6.8 km/h 6.8 km/h 52 % 0 mm
14:09 -9.6 °C -15.1 °C 34703.1 hPa East 6 km/h 6 km/h 52 % 0 mm
14:14 -9.6 °C -14.9 °C 34703.1 hPa East 6 km/h 6 km/h 52 % 0 mm
14:19 -9.6 °C -15.2 °C 34703.1 hPa ENE 6 km/h 6.3 km/h 51 % 0 mm
14:24 -9.6 °C -14.9 °C 34703.1 hPa ENE 6 km/h 6 km/h 52 % 0 mm
14:29 -9.6 °C -14.9 °C 34703.1 hPa NNE 6 km/h 6 km/h 52 % 0 mm
14:34 -9.6 °C -14.9 °C 34703.1 hPa WSW 9 km/h 9 km/h 52 % 0 mm
14:39 -9.5 °C -15.1 °C 34703.1 hPa West 9.8 km/h 9.8 km/h 51 % 0 mm
14:44 -9.4 °C -15.1 °C 34703.1 hPa WNW 12.7 km/h 12.7 km/h 51 % 0 mm
14:49 -9.4 °C -15.1 °C 34703.1 hPa SW 11.9 km/h 11.9 km/h 51 % 0 mm
14:54 -9.5 °C -15.2 °C 34703.1 hPa West 17.9 km/h 17.9 km/h 50 % 0 mm
14:59 -9.6 °C -15.4 °C 34703.1 hPa WNW 15 km/h 15 km/h 49 % 0 mm
15:04 -9.6 °C -15.3 °C 34703.1 hPa WNW 15.3 km/h 15.3 km/h 50 % 0 mm
15:09 -9.7 °C -15.7 °C 34703.1 hPa NNE 17.9 km/h 17.9 km/h 48 % 0 mm
15:14 -9.7 °C -15.9 °C 34703.1 hPa NW 17.9 km/h 17.9 km/h 47 % 0 mm
15:19 -9.8 °C -16 °C 34703.1 hPa WSW 9 km/h 9 km/h 47 % 0 mm
15:24 -9.8 °C -16.1 °C 34703.1 hPa WNW 17.9 km/h 17.9 km/h 47 % 0 mm
15:29 -9.8 °C -16.1 °C 34703.1 hPa WSW 6 km/h 6 km/h 47 % 0 mm
15:34 -9.9 °C -16.1 °C 34703.1 hPa West 17.9 km/h 17.9 km/h 47 % 0 mm
15:39 -9.9 °C -16.2 °C 34703.1 hPa West 11.1 km/h 11.1 km/h 47 % 0 mm
15:44 -10.1 °C -16.2 °C 34703.1 hPa WSW 9 km/h 9 km/h 47 % 0 mm
15:49 -10.1 °C -16.3 °C 34703.1 hPa West 6 km/h 6 km/h 47 % 0 mm
15:54 -10.1 °C -16.3 °C 34703.1 hPa West 6 km/h 6.3 km/h 47 % 0 mm
15:59 -10.2 °C -16.3 °C 34703.1 hPa SW 11.9 km/h 11.9 km/h 47 % 0 mm
16:04 -10.2 °C -16.3 °C 34740.4 hPa WSW 15 km/h 15 km/h 47 % 0 mm
16:09 -10.2 °C -16.3 °C 34740.4 hPa West 7.6 km/h   47 % 0 mm
16:14 -10.2 °C -16.4 °C 34740.4 hPa North 6 km/h 6 km/h 47 % 0 mm
16:19 -10.3 °C -16.4 °C 34740.4 hPa WNW 6.8 km/h 6.8 km/h 47 % 0 mm
16:24 -10.3 °C -16.4 °C 34740.4 hPa NNW 6 km/h 6 km/h 47 % 0 mm
16:29 -10.3 °C -16.5 °C 34740.4 hPa West 9 km/h 9 km/h 47 % 0 mm
16:34 -10.4 °C -16.6 °C 34740.4 hPa WSW 6 km/h 6 km/h 47 % 0 mm
16:39 -10.4 °C -16.6 °C 34740.4 hPa SW 6.8 km/h 6.8 km/h 47 % 0 mm
16:44 -10.4 °C -16.6 °C 34740.4 hPa West 4.2 km/h   47 % 0 mm
16:49 -10.5 °C -16.6 °C 34740.4 hPa WSW 3.1 km/h   47 % 0 mm
16:54 -10.6 °C -16.7 °C 34740.4 hPa SW 6.8 km/h 6.8 km/h 47 % 0 mm
16:59 -10.7 °C -16.8 °C 34740.4 hPa WSW 6.3 km/h 6.3 km/h 47 % 0 mm
17:04 -10.8 °C -16.7 °C 34703.1 hPa WSW 6.3 km/h 6.3 km/h 48 % 0 mm
17:09 -10.9 °C -16.8 °C 34703.1 hPa West 6 km/h 6 km/h 48 % 0 mm
17:14 -10.9 °C -16.9 °C 34703.1 hPa WSW 5.6 km/h 5.6 km/h 48 % 0 mm
17:19 -10.9 °C -16.9 °C 34740.4 hPa SW 3.1 km/h   48 % 0 mm
17:24 -11 °C -16.9 °C 34740.4 hPa SW 4.2 km/h   48 % 0 mm
17:29 -11.1 °C -17.1 °C 34740.4 hPa SW 6 km/h 6 km/h 48 % 0 mm
17:34 -11.2 °C -17.2 °C 34703.1 hPa SW 6.3 km/h 6.3 km/h 48 % 0 mm
17:39 -11.3 °C -17.1 °C 34703.1 hPa WSW 3.1 km/h 3.7 km/h 49 % 0 mm
17:44 -11.3 °C -17.1 °C 34703.1 hPa SW 6 km/h 6.3 km/h 49 % 0 mm
17:49 -11.3 °C -17.1 °C 34703.1 hPa WSW 6 km/h 6 km/h 49 % 0 mm
17:54 -11.3 °C -17.1 °C 34703.1 hPa West 6 km/h 6 km/h 49 % 0 mm
17:59 -11.3 °C -17.1 °C 34703.1 hPa WSW 6 km/h 6 km/h 49 % 0 mm
18:04 -11.3 °C -17.2 °C 34703.1 hPa West 6 km/h 6 km/h 48 % 0 mm
18:09 -11.3 °C -17.2 °C 34703.1 hPa West 3.1 km/h 3.1 km/h 48 % 0 mm
18:14 -11.3 °C -17.3 °C 34703.1 hPa Calm     48 % 0 mm
18:19 -11.4 °C -17.1 °C 34703.1 hPa Calm     49 % 0 mm
18:24 -11.4 °C -17.3 °C 34703.1 hPa West 3.1 km/h 3.1 km/h 48 % 0 mm
18:29 -11.5 °C -17.3 °C 34703.1 hPa Calm     49 % 0 mm
18:34 -11.6 °C -17.3 °C 34740.4 hPa Calm     49 % 0 mm
18:39 -11.7 °C -17.4 °C 34740.4 hPa Calm     49 % 0 mm
18:40 -11.7 °C -17.4 °C 34740.4 hPa Calm     49 % 0 mm
18:45 -11.7 °C -17.4 °C 34740.4 hPa Calm     49 % 0 mm
18:50 -11.7 °C -17.4 °C 34740.4 hPa NE 4.2 km/h 4.2 km/h 49 % 0 mm
18:55 -11.7 °C -17.3 °C 34740.4 hPa NE 2.6 km/h 5.1 km/h 50 % 0 mm
19:00 -11.6 °C -17.3 °C 34740.4 hPa ENE 3.1 km/h   49 % 0 mm
19:05 -11.6 °C -17.2 °C 34740.4 hPa Calm     50 % 0 mm
19:10 -11.7 °C -17.3 °C 34740.4 hPa Calm     50 % 0 mm
19:15 -11.8 °C -17.4 °C 34740.4 hPa West 6 km/h 6 km/h 50 % 0 mm
19:20 -11.8 °C -17.4 °C 34740.4 hPa Calm     50 % 0 mm
19:25 -11.9 °C -17.4 °C 34740.4 hPa West 3.1 km/h 3.1 km/h 50 % 0 mm
19:30 -11.9 °C -17.4 °C 34740.4 hPa Calm     50 % 0 mm
19:35 -11.9 °C -17.3 °C 34740.4 hPa NE 3.7 km/h   51 % 0 mm
19:40 -12 °C -17.4 °C 34740.4 hPa ENE 6 km/h 6 km/h 51 % 0 mm
19:45 -12.1 °C -17.4 °C 34740.4 hPa Calm     51 % 0 mm
19:50 -12 °C -17.4 °C 34740.4 hPa Calm     51 % 0 mm
19:55 -12 °C -17.4 °C 34740.4 hPa Calm     51 % 0 mm
20:00 -12 °C -17.4 °C 34740.4 hPa Calm     51 % 0 mm
20:05 -12.1 °C -17.4 °C 34740.4 hPa Calm     51 % 0 mm
20:10 -12.2 °C -17.6 °C 34740.4 hPa ENE 2.3 km/h   51 % 0 mm
20:15 -12.2 °C -17.6 °C 34740.4 hPa ENE 3.1 km/h 3.1 km/h 51 % 0 mm
20:20 -12.2 °C -17.6 °C 34740.4 hPa Calm     51 % 0 mm
20:25 -12.2 °C -17.4 °C 34740.4 hPa Calm     52 % 0 mm
20:30 -12.3 °C -17.5 °C 34740.4 hPa ENE 3.1 km/h 3.1 km/h 52 % 0 mm
20:35 -12.3 °C -17.5 °C 34740.4 hPa Calm     52 % 0 mm
20:40 -12.3 °C -17.5 °C 34740.4 hPa WSW 9 km/h 9 km/h 52 % 0 mm
20:45 -12.3 °C -17.6 °C 34740.4 hPa WSW 6 km/h 6 km/h 52 % 0 mm
20:50 -12.3 °C -17.5 °C 34740.4 hPa WSW 6.3 km/h 6.3 km/h 52 % 0 mm
20:55 -12.3 °C -17.5 °C 34740.4 hPa West 6.3 km/h 6.3 km/h 52 % 0 mm
21:00 -12.3 °C -17.6 °C 34740.4 hPa West 6 km/h 6 km/h 52 % 0 mm
21:05 -12.4 °C -17.6 °C 34740.4 hPa West 3.1 km/h 3.1 km/h 52 % 0 mm
21:10 -12.3 °C -17.6 °C 34740.4 hPa West 3.1 km/h 3.1 km/h 52 % 0 mm
21:15 -12.3 °C -17.5 °C 34740.4 hPa West 3.1 km/h 3.1 km/h 52 % 0 mm
21:20 -12.3 °C -17.5 °C 34740.4 hPa Calm     52 % 0 mm
21:25 -12.5 °C -17.7 °C 34740.4 hPa ENE 4.2 km/h 4.2 km/h 52 % 0 mm
21:30 -12.6 °C -17.7 °C 34740.4 hPa ENE 3.1 km/h 3.1 km/h 53 % 0 mm
21:35 -12.7 °C -17.8 °C 34740.4 hPa East 3.1 km/h 3.1 km/h 53 % 0 mm
21:40 -12.8 °C -17.7 °C 34740.4 hPa Calm     54 % 0 mm
21:45 -12.8 °C -17.7 °C 34740.4 hPa Calm     54 % 0 mm
21:50 -12.9 °C -17.7 °C 34703.1 hPa East 3.1 km/h 3.1 km/h 55 % 0 mm
21:55 -13 °C -17.7 °C 34703.1 hPa ENE 6 km/h 6 km/h 55 % 0 mm
22:00 -13.1 °C -17.7 °C 34703.1 hPa Calm     56 % 0 mm
22:05 -13.1 °C -17.7 °C 34740.4 hPa Calm     56 % 0 mm
22:10 -13.1 °C -17.7 °C 34740.4 hPa Calm     56 % 0 mm
22:15 -13.1 °C -17.7 °C 34740.4 hPa NE 3.7 km/h 3.7 km/h 56 % 0 mm
22:20 -13.1 °C -17.7 °C 34740.4 hPa NE 3.7 km/h   56 % 0 mm
22:25 -13.2 °C -17.7 °C 34740.4 hPa Calm     57 % 0 mm
22:30 -13.2 °C -17.7 °C 34740.4 hPa Calm     57 % 0 mm
22:35 -13.2 °C -17.7 °C 34740.4 hPa WNW 3.1 km/h 3.7 km/h 57 % 0 mm
22:40 -13.2 °C -17.6 °C 34740.4 hPa WNW 3.1 km/h   57 % 0 mm
22:45 -13.3 °C -17.7 °C 34740.4 hPa NE 9 km/h 9 km/h 57 % 0 mm
22:50 -13.4 °C -17.7 °C 34740.4 hPa NE 3.1 km/h   58 % 0 mm
22:51 -13.4 °C -17.7 °C 34740.4 hPa NE 3.1 km/h 3.1 km/h 58 % 0 mm
22:56 -13.4 °C -17.7 °C 34740.4 hPa NE 3.7 km/h 3.7 km/h 58 % 0 mm
23:01 -13.4 °C -17.7 °C 34740.4 hPa NE 3.1 km/h   58 % 0 mm
23:06 -13.4 °C -17.7 °C 34703.1 hPa WNW 6 km/h 6 km/h 58 % 0 mm
23:11 -13.5 °C -17.7 °C 34703.1 hPa WNW 3.1 km/h   59 % 0 mm
23:16 -13.6 °C -17.7 °C 34703.1 hPa West 3.7 km/h 3.7 km/h 59 % 0 mm
23:21 -13.6 °C -17.8 °C 34740.4 hPa WSW 6 km/h 6 km/h 59 % 0 mm
23:26 -13.8 °C -17.9 °C 34740.4 hPa WSW 6 km/h 6 km/h 59 % 0 mm
23:31 -13.8 °C -17.8 °C 34740.4 hPa WSW 6 km/h 6 km/h 60 % 0 mm
23:36 -13.9 °C -17.9 °C 34740.4 hPa SW 3.1 km/h   60 % 0 mm
23:41 -13.9 °C -17.9 °C 34740.4 hPa SW 3.7 km/h 3.7 km/h 60 % 0 mm
23:46 -13.9 °C -17.9 °C 34740.4 hPa SW 6 km/h 6 km/h 60 % 0 mm
23:51 -13.8 °C -17.9 °C 34740.4 hPa West 3.1 km/h 3.1 km/h 60 % 0 mm
23:56 -13.8 °C -17.8 °C 34740.4 hPa West 3.1 km/h   60 % 0 mm
Meteo Sesrovires
Elogis d' Weather Underground - 1.5 mb

Guio original per  Jim McMurry - jmcmurry@mwt.net Adaptat per a la plantilla per  Wim van der Kuil - Leuven-Template.eu

Trobareu la nostra informacio del temps tambe a:

Weather Underground

AWEKAS